Time;durP1;ratioP1;P1;durP2;ratioP2;P2;SDS_P1;SDS_P2;PMS_P1;PMS_P2;Temp;Humidity;BMP_temperature;BMP_pressure;BME280_temperature;BME280_humidity;BME280_pressure;Samples;Min_cycle;Max_cycle;Signal;HPM_P1;HPM_P2
2023/01/15 00:02:27;;;;;;;1.77;0.60;;;;;;;7.45;100.00;98783.97;6154098;28;20071;-86
2023/01/15 00:05:29;;;;;;;0.52;0.50;;;;;;;7.33;100.00;98810.84;6160799;28;20058;-86
2023/01/15 00:08:30;;;;;;;1.30;0.70;;;;;;;7.17;100.00;98815.78;6169383;28;20472;-87
2023/01/15 00:11:32;;;;;;;0.63;0.50;;;;;;;7.08;100.00;98845.72;6157163;28;20035;-87
2023/01/15 00:14:34;;;;;;;1.67;0.60;;;;;;;7.02;100.00;98830.84;6158517;28;20579;-86
2023/01/15 00:17:36;;;;;;;2.13;0.70;;;;;;;6.90;100.00;98835.34;6168671;28;20053;-87
2023/01/15 00:20:37;;;;;;;1.90;0.60;;;;;;;6.84;100.00;98828.22;6170127;28;20532;-86
2023/01/15 00:30:20;;;;;;;1.83;0.47;;;;;;;6.29;100.00;98810.84;6161508;28;20134;-87
2023/01/15 00:33:22;;;;;;;3.08;0.47;;;;;;;6.14;100.00;98815.56;6168410;28;20049;-87
2023/01/15 00:36:24;;;;;;;1.65;0.60;;;;;;;6.03;100.00;98816.50;6165667;28;20129;-87
2023/01/15 00:39:28;;;;;;;2.78;0.80;;;;;;;5.96;100.00;98804.31;6157784;28;20050;-87
2023/01/15 00:42:29;;;;;;;4.47;0.77;;;;;;;5.88;100.00;98829.84;6162482;28;20047;-86
2023/01/15 00:45:31;;;;;;;1.30;0.60;;;;;;;5.88;100.00;98830.66;6155655;28;20110;-87
2023/01/15 00:48:36;;;;;;;2.70;0.60;;;;;;;5.79;100.00;98829.69;6168282;28;20493;-86
2023/01/15 00:51:38;;;;;;;1.17;0.50;;;;;;;5.76;100.00;98826.56;6161945;28;20062;-87
2023/01/15 00:54:40;;;;;;;1.88;0.70;;;;;;;5.69;100.00;98841.72;6163258;28;20126;-88
2023/01/15 00:57:41;;;;;;;2.05;0.60;;;;;;;5.59;100.00;98843.44;6150119;28;20051;-87
2023/01/15 01:00:44;;;;;;;0.52;0.38;;;;;;;5.55;100.00;98876.25;6168095;28;20085;-88
2023/01/15 01:03:47;;;;;;;5.07;0.88;;;;;;;5.43;100.00;98851.63;6168630;28;20042;-88
2023/01/15 01:06:49;;;;;;;0.73;0.45;;;;;;;5.31;100.00;98839.81;6162341;28;20058;-87
2023/01/15 01:09:51;;;;;;;1.70;0.52;;;;;;;5.18;100.00;98845.97;6166163;28;20050;-88
2023/01/15 01:12:54;;;;;;;2.33;0.40;;;;;;;5.12;100.00;98846.50;6150927;28;20085;-87
2023/01/15 01:15:56;;;;;;;0.68;0.40;;;;;;;5.04;100.00;98876.28;6168523;28;20093;-87
2023/01/15 01:19:00;;;;;;;1.42;0.60;;;;;;;5.05;100.00;98865.91;6167741;28;20065;-88
2023/01/15 01:22:02;;;;;;;0.40;0.30;;;;;;;5.02;100.00;98883.28;6166885;28;20043;-88
2023/01/15 01:25:05;;;;;;;1.60;0.63;;;;;;;5.05;100.00;98865.09;6167320;28;20043;-88
2023/01/15 01:28:07;;;;;;;0.95;0.43;;;;;;;5.02;100.00;98866.16;6165413;28;20587;-87
2023/01/15 01:31:09;;;;;;;1.95;0.50;;;;;;;5.00;100.00;98862.91;6164663;28;20082;-87
2023/01/15 01:34:13;;;;;;;0.52;0.30;;;;;;;4.89;100.00;98897.09;6163503;28;20039;-86
2023/01/15 01:37:15;;;;;;;1.52;0.50;;;;;;;4.82;100.00;98884.91;6163461;28;20232;-87
2023/01/15 01:40:17;;;;;;;1.38;0.43;;;;;;;4.73;100.00;98877.03;6157864;28;20523;-86
2023/01/15 01:43:23;;;;;;;2.03;0.50;;;;;;;4.63;100.00;98888.16;6162683;28;20109;-87
2023/01/15 01:46:27;;;;;;;0.57;0.50;;;;;;;4.62;100.00;98884.78;6164215;28;20034;-87
2023/01/15 01:49:29;;;;;;;2.72;0.40;;;;;;;4.53;100.00;98870.97;6162571;28;20054;-88
2023/01/15 01:52:38;;;;;;;1.00;0.40;;;;;;;4.45;100.00;98872.53;6164659;28;20051;-88
2023/01/15 01:55:40;;;;;;;0.38;0.28;;;;;;;4.44;100.00;98887.06;6165081;28;20170;-88
2023/01/15 01:58:46;;;;;;;0.30;0.30;;;;;;;4.42;100.00;98888.97;6163194;28;20677;-86
2023/01/15 02:01:49;;;;;;;1.10;0.30;;;;;;;4.40;100.00;98901.06;6162612;28;20051;-87
2023/01/15 02:04:52;;;;;;;0.52;0.30;;;;;;;4.45;100.00;98909.22;6164332;28;20471;-87
2023/01/15 02:07:54;;;;;;;0.28;0.22;;;;;;;4.39;100.00;98902.00;6164842;28;20031;-87
2023/01/15 02:10:56;;;;;;;0.65;0.38;;;;;;;4.41;100.00;98895.00;6163612;28;20616;-87
2023/01/15 02:14:37;;;;;;;0.45;0.40;;;;;;;4.37;100.00;98901.28;6154311;28;20448;-87
2023/01/15 02:18:24;;;;;;;0.20;0.20;;;;;;;4.38;100.00;98892.69;6165446;28;20047;-88
2023/01/15 02:21:47;;;;;;;0.65;0.60;;;;;;;4.33;100.00;98905.06;6164064;28;20662;-88
2023/01/15 02:25:15;;;;;;;0.38;0.30;;;;;;;4.35;100.00;98910.03;6162731;28;20063;-89
2023/01/15 02:28:27;;;;;;;2.95;0.70;;;;;;;4.28;100.00;98902.03;6162126;28;20269;-89
2023/01/15 02:31:37;;;;;;;0.20;0.20;;;;;;;4.30;100.00;98900.19;6159721;28;20046;-90
2023/01/15 02:34:47;;;;;;;1.33;0.40;;;;;;;4.30;100.00;98895.88;6161289;28;20078;-90
2023/01/15 02:37:54;;;;;;;1.27;0.50;;;;;;;4.28;100.00;98902.03;6153029;28;20062;-90
2023/01/15 02:41:01;;;;;;;0.43;0.28;;;;;;;4.20;100.00;98891.56;6162388;28;20057;-89
2023/01/15 02:44:07;;;;;;;0.20;0.20;;;;;;;4.15;100.00;98886.00;6143811;28;20502;-89
2023/01/15 02:47:11;;;;;;;0.20;0.20;;;;;;;4.16;100.00;98882.53;6173178;28;20882;-89
2023/01/15 02:50:14;;;;;;;1.15;0.47;;;;;;;4.21;100.00;98882.97;6161165;28;20137;-89
2023/01/15 02:53:22;;;;;;;3.75;0.43;;;;;;;4.19;100.00;98879.72;6159032;28;20134;-89
2023/01/15 02:56:29;;;;;;;0.63;0.22;;;;;;;4.20;100.00;98871.09;6146182;28;20077;-89
2023/01/15 02:59:37;;;;;;;0.30;0.20;;;;;;;4.21;100.00;98870.16;6156793;28;20162;-89
2023/01/15 03:03:05;;;;;;;0.55;0.35;;;;;;;4.23;100.00;98858.06;6147264;28;20046;-89
2023/01/15 03:06:38;;;;;;;0.90;0.50;;;;;;;4.23;100.00;98845.25;6157839;28;20425;-88
2023/01/15 03:09:40;;;;;;;0.30;0.30;;;;;;;4.32;100.00;98835.09;6150378;28;20046;-88
2023/01/15 03:13:01;;;;;;;1.05;0.30;;;;;;;4.31;100.00;98850.56;6159947;28;20047;-88
2023/01/15 03:16:39;;;;;;;1.02;0.50;;;;;;;4.36;100.00;98852.75;6153152;28;20053;-88
2023/01/15 03:19:54;;;;;;;0.40;0.40;;;;;;;4.36;100.00;98853.56;6156662;28;20510;-88
2023/01/15 03:23:04;;;;;;;0.85;0.50;;;;;;;4.39;100.00;98866.13;6153301;28;20039;-88
2023/01/15 03:26:06;;;;;;;1.80;1.42;;;;;;;4.44;100.00;98853.75;6140204;28;20054;-88
2023/01/15 03:29:13;;;;;;;2.10;0.60;;;;;;;4.46;100.00;98846.78;6152158;28;20050;-88
2023/01/15 03:32:17;;;;;;;2.13;0.63;;;;;;;4.48;100.00;98850.03;6155957;28;20054;-87
2023/01/15 03:35:41;;;;;;;1.08;0.60;;;;;;;4.54;100.00;98848.72;6139353;28;20054;-87
2023/01/15 03:38:46;;;;;;;0.77;0.55;;;;;;;4.49;100.00;98849.06;6155692;28;20101;-87
2023/01/15 03:42:38;;;;;;;2.13;0.63;;;;;;;4.51;100.00;98841.28;6153744;28;20124;-87
2023/01/15 03:45:46;;;;;;;2.60;0.60;;;;;;;4.59;100.00;98843.22;6124351;28;20047;-88
2023/01/15 03:49:15;;;;;;;1.92;0.70;;;;;;;4.65;100.00;98835.03;6113132;29;20583;-89
2023/01/15 03:52:59;;;;;;;1.80;0.73;;;;;;;4.63;100.00;98822.34;6109144;29;20179;-90
2023/01/15 03:56:38;;;;;;;3.33;0.70;;;;;;;4.59;100.00;98812.47;5976317;29;20193;-89
2023/01/15 03:59:53;;;;;;;2.50;0.73;;;;;;;4.57;100.00;98814.34;5980620;29;20144;-90
2023/01/15 04:02:57;;;;;;;2.10;0.63;;;;;;;4.56;100.00;98805.84;5996427;29;20520;-90
2023/01/15 04:06:03;;;;;;;2.17;0.90;;;;;;;4.56;100.00;98808.41;6012508;29;20686;-90
2023/01/15 04:09:09;;;;;;;1.80;0.77;;;;;;;4.49;100.00;98804.72;5997380;29;20060;-90
2023/01/15 04:12:11;;;;;;;1.48;0.55;;;;;;;4.53;100.00;98809.47;5996436;29;20058;-89
2023/01/15 04:15:18;;;;;;;1.02;0.68;;;;;;;4.52;100.00;98786.53;6008917;29;20116;-89
2023/01/15 04:18:20;;;;;;;2.42;0.80;;;;;;;4.52;100.00;98800.19;6011102;29;20122;-89
2023/01/15 04:21:22;;;;;;;2.30;0.95;;;;;;;4.54;100.00;98785.47;5997481;29;20068;-89
2023/01/15 04:24:24;;;;;;;2.78;0.80;;;;;;;4.48;100.00;98780.06;6057528;29;20068;-89
2023/01/15 04:27:26;;;;;;;2.95;1.08;;;;;;;4.56;100.00;98784.53;6053817;29;20061;-89
2023/01/15 04:30:28;;;;;;;2.92;0.80;;;;;;;4.50;100.00;98796.91;6057758;29;20126;-89
2023/01/15 04:33:29;;;;;;;3.85;0.70;;;;;;;4.51;100.00;98798.53;6135058;28;20190;-89
2023/01/15 04:36:34;;;;;;;1.55;0.93;;;;;;;4.63;100.00;98793.34;6158849;28;20084;-89
2023/01/15 04:39:36;;;;;;;1.60;1.42;;;;;;;4.53;100.00;98783.84;6153095;28;20529;-89
2023/01/15 04:45:59;;;;;;;1.75;0.75;;;;;;;4.54;100.00;98770.09;6153088;28;20054;-89
2023/01/15 04:49:02;;;;;;;2.58;1.10;;;;;;;4.47;100.00;98779.25;6154981;28;20038;-89
2023/01/15 04:52:04;;;;;;;4.97;1.00;;;;;;;4.56;100.00;98810.16;6153292;28;20035;-89
2023/01/15 04:55:06;;;;;;;2.55;1.15;;;;;;;4.52;100.00;98797.59;6154465;28;20130;-89
2023/01/15 04:58:08;;;;;;;1.67;0.90;;;;;;;4.40;100.00;98803.72;6155270;28;20528;-89
2023/01/15 05:01:15;;;;;;;2.38;1.05;;;;;;;4.41;100.00;98802.78;6154219;28;20047;-89
2023/01/15 05:04:17;;;;;;;1.95;0.93;;;;;;;4.34;100.00;98801.66;6159668;28;20190;-89
2023/01/15 05:07:19;;;;;;;3.97;1.13;;;;;;;4.44;100.00;98794.84;6159704;28;20056;-89
2023/01/15 05:10:21;;;;;;;1.67;0.80;;;;;;;4.49;100.00;98815.78;6160084;28;20049;-89
2023/01/15 05:13:23;;;;;;;1.77;0.98;;;;;;;4.47;100.00;98824.53;6159122;28;20055;-89
2023/01/15 05:16:27;;;;;;;1.83;0.90;;;;;;;4.50;100.00;98806.34;6160085;28;20054;-89
2023/01/15 05:19:29;;;;;;;2.10;0.93;;;;;;;4.40;100.00;98790.13;6157549;28;20050;-89
2023/01/15 05:22:31;;;;;;;3.35;1.02;;;;;;;4.42;100.00;98773.69;6160316;28;20194;-89
2023/01/15 05:25:35;;;;;;;2.05;1.13;;;;;;;4.47;100.00;98769.00;6160487;28;20722;-89
2023/01/15 05:28:38;;;;;;;2.42;0.95;;;;;;;4.48;100.00;98777.47;6157296;28;20515;-89
2023/01/15 05:31:41;;;;;;;2.65;1.30;;;;;;;4.50;100.00;98781.53;6157214;28;20050;-89
2023/01/15 05:34:43;;;;;;;2.20;0.90;;;;;;;4.50;100.00;98773.84;6161025;28;20042;-89
2023/01/15 05:37:45;;;;;;;2.17;1.00;;;;;;;4.57;100.00;98789.56;6158187;28;20139;-89
2023/01/15 05:40:47;;;;;;;4.10;1.20;;;;;;;4.61;100.00;98775.53;6158826;28;20563;-89
2023/01/15 05:43:49;;;;;;;2.55;1.30;;;;;;;4.57;100.00;98778.47;6157992;28;20126;-89
2023/01/15 05:46:53;;;;;;;4.68;1.48;;;;;;;4.56;100.00;98772.53;6157653;28;20411;-89
2023/01/15 05:49:55;;;;;;;1.85;1.10;;;;;;;4.57;100.00;98765.66;6160741;28;20342;-89
2023/01/15 05:52:57;;;;;;;4.82;1.30;;;;;;;4.66;100.00;98777.72;6159963;28;20221;-89
2023/01/15 05:56:03;;;;;;;2.38;1.10;;;;;;;4.59;100.00;98776.59;6154231;28;20046;-89
2023/01/15 05:59:06;;;;;;;3.35;1.48;;;;;;;4.60;100.00;98781.59;6157925;28;20054;-89
2023/01/15 06:02:08;;;;;;;2.25;1.30;;;;;;;4.71;100.00;98773.81;6156173;28;20046;-89
2023/01/15 06:05:11;;;;;;;3.20;1.65;;;;;;;4.69;100.00;98785.16;6159045;28;20049;-89
2023/01/15 06:08:13;;;;;;;2.67;1.33;;;;;;;4.70;100.00;98789.34;6156837;28;20522;-89
2023/01/15 06:11:15;;;;;;;4.78;1.75;;;;;;;4.82;100.00;98778.09;6157638;28;20113;-89
2023/01/15 06:14:17;;;;;;;4.25;1.33;;;;;;;4.75;100.00;98793.16;6160141;28;20620;-89
2023/01/15 06:17:19;;;;;;;5.25;1.60;;;;;;;4.80;100.00;98784.28;6148498;28;20046;-89
2023/01/15 06:20:20;;;;;;;4.95;1.70;;;;;;;4.75;100.00;98797.47;6165882;28;20104;-89
2023/01/15 06:23:22;;;;;;;5.07;1.85;;;;;;;4.83;100.00;98795.06;6145357;28;20547;-89
2023/01/15 06:26:24;;;;;;;8.40;1.73;;;;;;;4.90;100.00;98797.94;6166169;28;20039;-89
2023/01/15 06:29:26;;;;;;;5.40;1.52;;;;;;;4.77;100.00;98792.19;6148060;28;20057;-89
2023/01/15 06:32:28;;;;;;;4.38;1.90;;;;;;;4.75;100.00;98797.47;6145905;28;20047;-89
2023/01/15 06:35:30;;;;;;;7.10;1.60;;;;;;;4.67;100.00;98790.41;6158632;28;20038;-90
2023/01/15 06:38:33;;;;;;;2.95;1.40;;;;;;;4.58;100.00;98808.28;6147030;28;20054;-90
2023/01/15 06:48:17;;;;;;;6.20;2.63;;;;;;;4.64;100.00;98807.78;6151026;28;20046;-89
2023/01/15 06:51:20;;;;;;;2.90;1.60;;;;;;;4.62;100.00;98809.66;6149557;28;20049;-89
2023/01/15 06:54:22;;;;;;;2.20;1.35;;;;;;;4.58;100.00;98806.53;6145241;28;20049;-89
2023/01/15 06:57:24;;;;;;;5.50;1.50;;;;;;;4.65;100.00;98806.84;6146489;28;20087;-89
2023/01/15 07:00:27;;;;;;;6.43;1.58;;;;;;;4.68;100.00;98807.41;6150514;28;20538;-89
2023/01/15 07:03:28;;;;;;;8.05;1.50;;;;;;;4.69;100.00;98810.78;6149827;28;20251;-89
2023/01/15 07:06:30;;;;;;;2.58;1.40;;;;;;;4.64;100.00;98813.72;6149056;28;20073;-89
2023/01/15 07:09:32;;;;;;;3.70;1.45;;;;;;;4.58;100.00;98810.84;6143955;28;20058;-89
2023/01/15 07:12:34;;;;;;;4.90;1.40;;;;;;;4.68;100.00;98809.97;6146510;28;20128;-89
2023/01/15 07:15:37;;;;;;;2.75;1.60;;;;;;;4.70;100.00;98804.72;6142919;28;20047;-89
2023/01/15 07:18:39;;;;;;;2.67;1.45;;;;;;;4.66;100.00;98804.16;6147169;28;20047;-89
2023/01/15 07:21:41;;;;;;;7.85;2.10;;;;;;;4.49;100.00;98808.09;6148029;28;20069;-89
2023/01/15 07:24:43;;;;;;;4.75;1.40;;;;;;;4.56;100.00;98805.84;6147783;28;20038;-89
2023/01/15 07:27:49;;;;;;;3.40;1.10;;;;;;;4.52;100.00;98809.59;6150732;28;20047;-89
2023/01/15 07:30:51;;;;;;;3.78;1.58;;;;;;;4.44;100.00;98819.66;6147468;28;20045;-89
2023/01/15 07:33:55;;;;;;;5.22;1.33;;;;;;;4.29;100.00;98812.25;6155900;28;20047;-89
2023/01/15 07:36:57;;;;;;;3.72;1.75;;;;;;;4.33;100.00;98817.97;6150326;28;20405;-88
2023/01/15 07:39:59;;;;;;;6.35;1.55;;;;;;;4.39;100.00;98806.41;6148114;28;20096;-89
2023/01/15 07:49:48;;;;;;;3.42;1.67;;;;;;;4.38;100.00;98803.03;6148660;28;20089;-88
2023/01/15 07:52:51;;;;;;;6.82;2.00;;;;;;;4.40;100.00;98801.16;6153616;28;20043;-88
2023/01/15 07:55:54;;;;;;;5.57;2.10;;;;;;;4.35;100.00;98795.59;6145407;28;20035;-89
2023/01/15 07:58:55;;;;;;;5.60;1.70;;;;;;;4.30;100.00;98807.97;6132737;28;20169;-89
2023/01/15 08:01:58;;;;;;;5.63;1.67;;;;;;;4.33;100.00;98810.28;6151856;28;20088;-89
2023/01/15 08:05:00;;;;;;;4.95;1.85;;;;;;;4.46;100.00;98823.72;6164038;28;20178;-89
2023/01/15 08:08:02;;;;;;;7.40;1.80;;;;;;;4.58;100.00;98800.59;6150365;28;20085;-89
2023/01/15 08:17:47;;;;;;;5.25;2.15;;;;;;;4.58;100.00;98793.72;6159734;28;20089;-88
2023/01/15 08:20:49;;;;;;;3.42;1.40;;;;;;;4.51;100.00;98810.53;6147379;28;20047;-89
2023/01/15 08:23:51;;;;;;;4.70;1.60;;;;;;;4.48;100.00;98796.22;6144128;28;20039;-89
2023/01/15 08:26:54;;;;;;;3.45;1.48;;;;;;;4.52;100.00;98794.22;6150218;28;20046;-88
2023/01/15 08:29:56;;;;;;;5.78;1.55;;;;;;;4.60;100.00;98780.81;6153184;28;20043;-89
2023/01/15 08:33:01;;;;;;;4.45;1.55;;;;;;;4.51;100.00;98792.59;6151014;28;20484;-88
2023/01/15 08:36:04;;;;;;;4.80;1.40;;;;;;;4.50;100.00;98807.16;6145811;28;20512;-88
2023/01/15 08:39:06;;;;;;;3.78;1.55;;;;;;;4.77;100.00;98799.88;6150935;28;20160;-88
2023/01/15 08:42:08;;;;;;;6.55;1.45;;;;;;;4.76;100.00;98791.38;6160708;28;20074;-88
2023/01/15 08:45:10;;;;;;;1.80;1.20;;;;;;;4.74;100.00;98801.78;6156185;28;20267;-88
2023/01/15 08:48:12;;;;;;;2.92;1.63;;;;;;;4.65;100.00;98802.53;6159275;28;20181;-88
2023/01/15 08:51:14;;;;;;;4.40;1.63;;;;;;;4.58;100.00;98803.97;6158510;28;20063;-88
2023/01/15 08:54:20;;;;;;;6.30;1.92;;;;;;;4.56;100.00;98805.84;6164076;28;20043;-88
2023/01/15 08:57:22;;;;;;;4.63;1.23;;;;;;;4.60;100.00;98793.63;6150478;28;20046;-88
2023/01/15 09:00:24;;;;;;;4.07;1.20;;;;;;;4.64;100.00;98812.91;6156771;28;20039;-87
2023/01/15 09:03:26;;;;;;;3.72;1.30;;;;;;;4.74;100.00;98806.06;6146264;28;20073;-88
2023/01/15 09:06:28;;;;;;;3.70;1.25;;;;;;;4.71;100.00;98803.78;6156998;28;20140;-88
2023/01/15 09:09:30;;;;;;;2.58;1.40;;;;;;;4.72;100.00;98813.06;6150725;28;20879;-87
2023/01/15 09:12:32;;;;;;;6.10;1.60;;;;;;;4.75;100.00;98815.41;6148709;28;20043;-88
2023/01/15 09:15:33;;;;;;;5.78;1.55;;;;;;;4.98;100.00;98823.75;6163651;28;20137;-88
2023/01/15 09:18:37;;;;;;;6.38;1.92;;;;;;;5.09;100.00;98815.16;6147686;28;20288;-88
2023/01/15 09:21:39;;;;;;;4.78;1.50;;;;;;;5.15;100.00;98824.91;6151334;28;20475;-87
2023/01/15 09:24:41;;;;;;;5.10;1.40;;;;;;;5.27;100.00;98833.34;6156518;28;20058;-87
2023/01/15 09:27:43;;;;;;;4.15;1.35;;;;;;;5.33;100.00;98837.94;6160732;28;20206;-87
2023/01/15 09:30:45;;;;;;;4.45;1.50;;;;;;;5.51;100.00;98830.44;6157592;28;20038;-87
2023/01/15 09:33:48;;;;;;;2.55;1.38;;;;;;;5.54;100.00;98833.56;6155365;28;20031;-87
2023/01/15 09:36:50;;;;;;;2.10;1.20;;;;;;;5.70;100.00;98838.19;6152556;28;20356;-87
2023/01/15 09:39:52;;;;;;;4.75;1.42;;;;;;;5.75;100.00;98833.47;6152741;28;20567;-87
2023/01/15 09:43:01;;;;;;;4.18;1.73;;;;;;;5.77;100.00;98834.16;6148097;28;20038;-87
2023/01/15 09:46:20;;;;;;;2.20;1.00;;;;;;;5.84;100.00;98826.75;6150848;28;20050;-87
2023/01/15 09:50:00;;;;;;;4.65;1.10;;;;;;;5.83;100.00;98825.09;6147828;28;20051;-87
2023/01/15 09:53:28;;;;;;;6.05;1.50;;;;;;;5.82;100.00;98826.06;6153247;28;20141;-87
2023/01/15 09:56:32;;;;;;;5.90;1.20;;;;;;;5.95;100.00;98824.06;6157938;28;20280;-87
2023/01/15 09:59:37;;;;;;;5.63;0.98;;;;;;;6.12;100.00;98824.34;6120268;28;20400;-87
2023/01/15 10:03:13;;;;;;;3.13;0.93;;;;;;;6.25;100.00;98819.75;6154738;28;20046;-87
2023/01/15 10:06:21;;;;;;;1.85;0.95;;;;;;;6.20;100.00;98811.63;6153542;28;20095;-87
2023/01/15 10:09:33;;;;;;;3.35;1.13;;;;;;;6.10;100.00;98818.53;6150876;28;20135;-87
2023/01/15 10:12:44;;;;;;;2.58;0.73;;;;;;;6.10;100.00;98816.78;6146779;28;20039;-87
2023/01/15 10:15:46;;;;;;;3.20;1.05;;;;;;;6.07;100.00;98824.75;6148007;28;20035;-87
2023/01/15 10:18:49;;;;;;;3.35;0.93;;;;;;;5.89;100.00;98834.84;6145783;28;20050;-87
2023/01/15 10:22:05;;;;;;;1.70;1.02;;;;;;;5.69;100.00;98834.00;6148220;28;20122;-87
2023/01/15 10:25:18;;;;;;;3.00;1.10;;;;;;;5.62;100.00;98853.44;6146476;28;20051;-87
2023/01/15 10:28:32;;;;;;;3.35;1.00;;;;;;;5.54;100.00;98846.41;6145183;28;20042;-87
2023/01/15 10:32:11;;;;;;;1.85;1.20;;;;;;;5.45;100.00;98841.22;6145135;28;20447;-87
2023/01/15 10:35:23;;;;;;;4.10;1.38;;;;;;;5.28;100.00;98842.66;6151578;28;20069;-87
2023/01/15 10:38:58;;;;;;;4.95;1.67;;;;;;;5.26;100.00;98847.91;6154635;28;20034;-87
2023/01/15 10:42:32;;;;;;;2.55;1.20;;;;;;;5.30;100.00;98833.06;6144419;28;20501;-87
2023/01/15 10:45:46;;;;;;;2.70;1.30;;;;;;;5.45;100.00;98825.84;6118537;28;21559;-87
2023/01/15 10:48:54;;;;;;;2.55;1.30;;;;;;;5.55;100.00;98826.66;6142067;28;20048;-87
2023/01/15 10:52:25;;;;;;;2.53;1.27;;;;;;;5.52;100.00;98814.09;6137580;28;20055;-87
2023/01/15 10:55:46;;;;;;;4.63;1.15;;;;;;;5.48;100.00;98821.25;6140650;28;20058;-88
2023/01/15 10:59:16;;;;;;;4.97;1.20;;;;;;;5.51;100.00;98820.16;6134884;28;20050;-88
2023/01/15 11:02:57;;;;;;;1.40;0.95;;;;;;;5.50;100.00;98816.00;6143457;28;20070;-87
2023/01/15 11:05:59;;;;;;;2.35;1.50;;;;;;;5.48;100.00;98810.16;6140379;28;20058;-88
2023/01/15 11:09:00;;;;;;;2.63;1.10;;;;;;;5.39;100.00;98812.59;6144472;28;20122;-87
2023/01/15 11:22:19;;;;;;;4.55;1.33;;;;;;;5.63;100.00;98806.28;6141823;28;20521;-87
2023/01/15 11:25:29;;;;;;;2.47;1.08;;;;;;;5.67;100.00;98799.16;6164466;28;20046;-87
2023/01/15 11:28:41;;;;;;;7.28;1.35;;;;;;;5.88;100.00;98809.31;6149265;28;20193;-87
2023/01/15 11:31:43;;;;;;;1.92;1.13;;;;;;;6.18;100.00;98814.34;6147066;28;20578;-87
2023/01/15 11:35:01;;;;;;;2.08;1.00;;;;;;;6.46;100.00;98828.13;6148957;28;20047;-87
2023/01/15 11:38:13;;;;;;;2.92;1.00;;;;;;;6.61;100.00;98804.59;6144724;28;20043;-87
2023/01/15 11:51:46;;;;;;;1.58;0.90;;;;;;;6.48;100.00;98815.13;6141923;28;20565;-86
2023/01/15 11:54:53;;;;;;;5.35;1.10;;;;;;;6.45;100.00;98817.97;6146269;28;20046;-87
2023/01/15 11:57:56;;;;;;;2.55;0.80;;;;;;;6.52;100.00;98808.78;6146556;28;20434;-88
2023/01/15 12:00:58;;;;;;;4.30;1.00;;;;;;;6.71;100.00;98825.09;6147309;28;20050;-87
2023/01/15 12:04:05;;;;;;;3.58;1.00;;;;;;;6.81;100.00;98821.56;6143308;28;20121;-89
2023/01/15 12:07:12;;;;;;;1.70;1.15;;;;;;;7.00;100.00;98828.41;6149495;28;20062;-90
2023/01/15 12:14:22;;;;;;;3.53;1.00;;;;;;;6.88;100.00;98826.97;6153046;28;20094;-89
2023/01/15 12:17:55;;;;;;;4.10;0.85;;;;;;;6.90;100.00;98827.63;6157108;28;20857;-90
2023/01/15 12:21:18;;;;;;;2.17;0.90;;;;;;;6.86;100.00;98828.88;6153082;28;20050;-89
2023/01/15 12:24:42;;;;;;;3.05;0.80;;;;;;;6.78;100.00;98815.88;6155622;28;20128;-90
2023/01/15 12:28:17;;;;;;;4.65;0.77;;;;;;;6.77;100.00;98829.72;6151860;28;20050;-90
2023/01/15 12:31:30;;;;;;;3.50;0.93;;;;;;;6.72;100.00;98824.16;6155732;28;20052;-90
2023/01/15 12:34:35;;;;;;;2.33;0.80;;;;;;;6.76;100.00;98821.19;6153447;28;20047;-90
2023/01/15 12:37:49;;;;;;;1.15;0.77;;;;;;;6.76;100.00;98817.78;6155521;28;20535;-89
2023/01/15 12:40:59;;;;;;;3.00;1.05;;;;;;;6.64;100.00;98815.38;6147738;28;20516;-90
2023/01/15 12:47:25;;;;;;;;;;;;;;;6.60;100.00;98808.09;6154132;28;20599;-90
2023/01/15 12:50:30;;;;;;;4.20;1.13;;;;;;;6.53;100.00;98812.97;6151776;28;19926;-90
2023/01/15 12:53:44;;;;;;;3.00;1.10;;;;;;;6.49;100.00;98816.78;6169457;28;20043;-89
2023/01/15 12:57:13;;;;;;;2.70;1.08;;;;;;;6.49;100.00;98791.06;6156062;28;20125;-90
2023/01/15 13:00:21;;;;;;;2.17;1.10;;;;;;;6.61;100.00;98789.16;6126257;28;20153;-90
2023/01/15 13:03:29;;;;;;;3.08;0.90;;;;;;;6.70;100.00;98788.31;6128338;28;20102;-90
2023/01/15 13:06:33;;;;;;;3.10;0.90;;;;;;;6.69;100.00;98791.84;6116299;28;20040;-90
2023/01/15 13:09:52;;;;;;;2.65;1.05;;;;;;;6.61;100.00;98797.66;6129357;28;20589;-90
2023/01/15 13:13:07;;;;;;;4.03;0.98;;;;;;;6.55;100.00;98797.41;6127702;28;20051;-89
2023/01/15 13:16:40;;;;;;;3.85;0.90;;;;;;;6.35;100.00;98815.41;6133689;28;20047;-89
2023/01/15 13:19:48;;;;;;;4.55;1.23;;;;;;;6.31;100.00;98810.69;6058208;29;20061;-90
2023/01/15 13:23:15;;;;;;;4.43;1.10;;;;;;;6.35;100.00;98812.84;6059784;29;20045;-90
2023/01/15 13:26:50;;;;;;;5.30;1.13;;;;;;;6.36;100.00;98799.06;6043250;29;20052;-90
2023/01/15 13:30:18;;;;;;;1.70;0.93;;;;;;;6.35;100.00;98806.91;6062301;29;20075;-89
2023/01/15 13:33:28;;;;;;;5.90;1.35;;;;;;;6.34;100.00;98800.16;6048400;29;20594;-90
2023/01/15 13:36:42;;;;;;;2.85;1.17;;;;;;;6.27;100.00;98799.88;6078736;29;20525;-90
2023/01/15 13:39:48;;;;;;;2.35;0.90;;;;;;;6.35;100.00;98802.56;6111074;29;20058;-90
2023/01/15 13:42:51;;;;;;;1.67;0.73;;;;;;;6.49;100.00;98791.06;6107807;29;20052;-89
2023/01/15 13:45:53;;;;;;;3.75;0.82;;;;;;;6.50;100.00;98808.09;6109257;29;20287;-90
2023/01/15 13:48:56;;;;;;;4.78;1.15;;;;;;;6.59;100.00;98801.34;6107720;29;20150;-89
2023/01/15 13:52:03;;;;;;;2.28;0.82;;;;;;;6.59;100.00;98793.63;6107589;29;20048;-90
2023/01/15 13:55:23;;;;;;;3.05;1.08;;;;;;;6.61;100.00;98789.97;6106700;29;20055;-90
2023/01/15 13:58:27;;;;;;;3.55;1.10;;;;;;;6.57;100.00;98780.91;6159047;28;20567;-90
2023/01/15 14:01:28;;;;;;;6.57;2.35;;;;;;;6.57;100.00;98774.94;6154884;28;20055;-90
2023/01/15 14:04:37;;;;;;;5.40;0.95;;;;;;;6.45;100.00;98777.66;6154217;28;20540;-90
2023/01/15 14:07:39;;;;;;;5.50;1.00;;;;;;;6.50;100.00;98768.75;6151930;28;20039;-91
2023/01/15 14:10:41;;;;;;;4.07;0.90;;;;;;;6.38;100.00;98781.72;6150267;28;20552;-90
2023/01/15 14:14:11;;;;;;;1.70;1.00;;;;;;;6.31;100.00;98780.69;6151473;28;20050;-89
2023/01/15 14:17:50;;;;;;;2.47;1.17;;;;;;;6.22;100.00;98789.19;6147863;28;20573;-89
2023/01/15 14:21:10;;;;;;;2.33;1.00;;;;;;;6.11;100.00;98782.47;6147275;28;20049;-89
2023/01/15 14:24:51;;;;;;;5.20;1.10;;;;;;;6.18;100.00;98787.84;6150774;28;20061;-89
2023/01/15 14:28:00;;;;;;;3.33;1.35;;;;;;;6.19;100.00;98784.34;6146580;28;20134;-90
2023/01/15 14:31:33;;;;;;;1.88;1.00;;;;;;;6.14;100.00;98787.31;6147436;28;20457;-89
2023/01/15 14:34:36;;;;;;;2.78;0.75;;;;;;;6.16;100.00;98780.28;6141546;28;20086;-89
2023/01/15 14:37:55;;;;;;;4.45;1.02;;;;;;;6.18;100.00;98780.94;6151724;28;20042;-89
2023/01/15 14:41:00;;;;;;;5.05;1.25;;;;;;;6.21;100.00;98793.53;6153413;28;20126;-90
2023/01/15 14:44:04;;;;;;;6.40;1.10;;;;;;;6.20;100.00;98797.03;6147149;28;20575;-90
2023/01/15 14:47:22;;;;;;;3.75;1.08;;;;;;;6.12;100.00;98803.81;6142295;28;20524;-89
2023/01/15 14:50:42;;;;;;;2.53;0.80;;;;;;;6.15;100.00;98811.25;6142912;28;20458;-89
2023/01/15 14:53:50;;;;;;;1.95;0.75;;;;;;;6.11;100.00;98817.56;6157830;28;20389;-89
2023/01/15 14:56:56;;;;;;;1.35;0.90;;;;;;;6.23;100.00;98824.22;6164206;28;20057;-89
2023/01/15 15:00:02;;;;;;;2.55;0.85;;;;;;;6.19;100.00;98815.16;6164247;28;20059;-89
2023/01/15 15:03:21;;;;;;;4.22;0.75;;;;;;;6.15;100.00;98821.50;6160349;28;20385;-88
2023/01/15 15:06:26;;;;;;;3.88;1.10;;;;;;;6.11;100.00;98818.41;6154993;28;20571;-88
2023/01/15 15:09:46;;;;;;;3.90;0.80;;;;;;;6.11;100.00;98813.28;6165313;28;20054;-89
2023/01/15 15:13:04;;;;;;;2.17;0.82;;;;;;;6.06;100.00;98823.13;6160177;28;20118;-89
2023/01/15 15:16:10;;;;;;;3.00;0.80;;;;;;;6.09;100.00;98822.03;6160950;28;20497;-88
2023/01/15 15:19:31;;;;;;;2.72;0.77;;;;;;;6.02;100.00;98821.78;6164209;28;20046;-88
2023/01/15 15:22:37;;;;;;;2.08;0.90;;;;;;;5.91;100.00;98822.66;6161287;28;20035;-89
2023/01/15 15:25:42;;;;;;;3.13;0.90;;;;;;;5.75;100.00;98805.22;6161964;28;20043;-89
2023/01/15 15:28:55;;;;;;;3.67;1.27;;;;;;;5.77;100.00;98841.03;6161229;28;20170;-88
2023/01/15 15:31:59;;;;;;;2.13;0.90;;;;;;;5.75;100.00;98827.53;6163236;28;20073;-89
2023/01/15 15:35:00;;;;;;;3.40;0.90;;;;;;;5.81;100.00;98842.38;6162798;28;20050;-89
2023/01/15 15:38:04;;;;;;;2.15;1.10;;;;;;;5.83;100.00;98827.66;6164224;28;20031;-88
2023/01/15 15:41:11;;;;;;;3.17;1.13;;;;;;;5.66;100.00;98825.75;6161263;28;20197;-90
2023/01/15 15:51:53;;;;;;;0.95;0.63;;;;;;;5.55;100.00;98819.78;6156242;28;20441;-90
2023/01/15 15:55:08;;;;;;;4.03;0.80;;;;;;;5.50;100.00;98823.69;6158024;28;20085;-89